• Join FlightAware (Why Join?)
  • Login
  • US Flag 
12:48PM EDT


 

Airport Tracker/Info


-or-


 

Live Flight TrackerFlight Track Log ✈ ASQ5750 ✈ 03-May-2013 ✈ CYUL - KORD

Flight Track Log - Related Links

Times and Time Zones

All times are in EDT time to prevent confusion due to time zone crossing. See the ASQ5750 flight status page for this flight to view local times or setup timezone preferences in your user account.

Time Position Orientation Groundspeed Altitude Reporting Facility
EDT Latitude Longitude Course Direction KTS MPH feet Rate Location/Type
03:47PM 45.4833 -73.7000 254° West 160 184 1,300  Level Montreal Center
03:48PM 45.5167 -73.6500 46° Northeast 210 242 4,200 2,700 Climbing Montreal Center
03:49PM 45.5667 -73.7000 325° Northwest 280 322 6,700 2,880 Climbing Montreal Center
03:50PM 45.5833 -73.8167 282° West 290 334 10,000 2,100 Climbing Montreal Center
03:51PM 45.5667 -73.9333 259° West 350 403 11,000 1,680 Climbing Montreal Center
03:52PM 45.4944 -74.5112 254° West  Level FlightAware Approximate
03:52PM 45.5667 -74.0833 270° West 360 414 13,400  Level Montreal Center
03:53PM 45.5333 -74.2167 250° West 360 414 15,700 2,100 Climbing Montreal Center
03:54PM 45.5167 -74.3667 261° West 370 426 17,600 1,800 Climbing Montreal Center
03:55PM 45.5000 -74.5167 261° West 370 426 19,400 2,100 Climbing Montreal Center
03:56PM 45.4833 -74.6333 259° West 350 403 21,800 1,860 Climbing Montreal Center
03:57PM 45.4500 -74.7667 250° West 350 403 23,200 1,380 Climbing Montreal Center
03:58PM 45.4333 -74.9167 261° West 360 414 24,600 1,320 Climbing Montreal Center
03:59PM 45.4167 -75.0667 261° West 370 426 25,900 1,080 Climbing Montreal Center
04:00PM 45.4167 -75.2000 270° West 370 426 26,800 960 Climbing Montreal Center
04:01PM 45.4000 -75.3667 262° West 380 437 27,900 960 Climbing Montreal Center
04:02PM 45.4000 -75.5167 270° West 380 437 28,800 960 Climbing Montreal Center
04:03PM 45.4000 -75.6833 270° West 390 449 29,900 600 Climbing Montreal Center
04:04PM 45.4167 -75.8167 280° West 400 460 30,000  Climbing Montreal Center
04:05PM 45.4000 -76.0000 263° West 410 472 30,000  Level Montreal Center
04:06PM 45.4000 -76.1667 270° West 430 495 30,000  Level Montreal Center
04:07PM 45.3667 -76.3500 256° West 440 506 30,000  Level Montreal Center
04:08PM 45.3167 -76.5167 247° West 450 518 30,000  Level Montreal Center
04:09PM 45.2833 -76.6833 254° West 460 529 30,000 600 Level Montreal Center
04:10PM 45.2500 -76.8500 254° West 450 518 31,300 1,260 Climbing Montreal Center
04:11PM 45.2000 -77.0167 247° West 430 495 32,600 1,080 Climbing Montreal Center
04:12PM 45.1667 -77.1833 254° West 410 472 33,500 660 Climbing Montreal Center
04:13PM 45.1333 -77.3167 251° West 400 460 34,000 360 Climbing Montreal Center
04:13PM 45.1167 -77.3333 215° Southwest 400 460 34,000  Level Toronto Center
04:14PM 45.1000 -77.4667 260° West 400 460 34,000  Level Montreal Center
04:15PM 45.0667 -77.6333 254° West 420 483 34,000  Level Montreal Center
04:15PM 45.0500 -77.6333 180° South 420 483 34,000  Level Toronto Center
04:16PM 45.0167 -77.8000 254° West 430 495 34,000  Level Toronto Center
04:18PM 44.9333 -78.1167 250° West 430 495 34,000  Level Montreal Center
04:19PM 44.8833 -78.2833 247° West 440 506 34,000  Level Toronto Center
04:21PM 44.8167 -78.6000 254° West 450 518 34,000  Level Toronto Center
04:22PM 44.7667 -78.7667 247° West 440 506 34,000  Level Montreal Center
04:23PM 44.7333 -78.9167 253° West 440 506 34,000  Level Montreal Center
04:23PM 44.7167 -78.9333 215° Southwest 440 506 34,000  Level Toronto Center
04:24PM 44.6500 -79.1000 241° Southwest 440 506 34,000  Level Toronto Center
04:25PM 44.6000 -79.2333 242° Southwest 440 506 34,000  Level Toronto Center
04:26PM 44.5500 -79.4000 247° West 440 506 34,000  Level Toronto Center
04:27PM 44.4833 -79.5333 235° Southwest 440 506 34,000  Level Toronto Center
04:28PM 44.4333 -79.7000 247° West 450 518 34,000  Level Toronto Center
04:29PM 44.3667 -79.8500 238° Southwest 440 506 34,000  Level Toronto Center
04:30PM 44.3167 -80.0000 245° Southwest 440 506 34,000  Level Toronto Center
04:31PM 44.2667 -80.1667 247° West 440 506 34,000  Level Toronto Center
04:32PM 44.2000 -80.3000 235° Southwest 440 506 34,000  Level Toronto Center
04:33PM 44.1500 -80.4667 247° West 450 518 34,000  Level Toronto Center
04:34PM 44.0833 -80.6000 235° Southwest 450 518 34,000  Level Toronto Center
04:35PM 44.0333 -80.7667 247° West 450 518 34,000  Level Toronto Center
04:36PM 43.9667 -80.9000 235° Southwest 450 518 34,000  Level Toronto Center
04:37PM 43.9000 -81.0667 241° Southwest 450 518 34,000  Level Toronto Center
04:38PM 43.8500 -81.2333 247° West 450 518 34,000  Level Toronto Center
04:39PM 43.7833 -81.3667 235° Southwest 450 518 34,000  Level Toronto Center
04:40PM 43.7333 -81.5333 248° West 450 518 34,000  Level Toronto Center
04:41PM 43.6667 -81.6833 238° Southwest 450 518 34,000  Level Toronto Center
04:42PM 43.6167 -81.8167 243° Southwest 450 518 34,000  Level Toronto Center
04:43PM 43.5333 -81.9833 235° Southwest 450 518 34,000  Level Toronto Center
04:44PM 43.4833 -82.1167 243° Southwest 450 518 34,000  Level Toronto Center
04:45PM 43.4592 -82.2275 253° West 452 520 34,000  Level Cleveland Center
04:46PM 43.3967 -82.3744 240° Southwest 452 520 34,000  Level Cleveland Center
04:46PM 43.3667 -82.4000 212° Southwest 440 506 34,000 -540 Level Toronto Center
04:47PM 43.3167 -82.5667 248° West 450 518 33,300 -660 Descending Toronto Center
04:48PM 43.2728 -82.6731 240° Southwest 458 527 33,000 -660 Descending Cleveland Center
04:49PM 43.2239 -82.8339 247° West 458 527 32,300 -540 Descending Cleveland Center
04:50PM 43.1769 -83.0003 249° West 464 534 32,000 -180 Descending Cleveland Center
04:51PM 43.1317 -83.1606 249° West 464 534 32,000  Level Cleveland Center
04:52PM 43.0883 -83.3236 250° West 464 534 32,000  Level Cleveland Center
04:53PM 43.0406 -83.4836 248° West 464 534 32,000  Level Cleveland Center
04:54PM 42.9969 -83.6433 250° West 464 534 32,000  Level Cleveland Center
04:55PM 42.9611 -83.8089 254° West 464 534 32,000  Level Cleveland Center
04:56PM 42.9439 -83.9756 262° West 459 528 32,000  Level Cleveland Center
04:57PM 42.9283 -84.1447 263° West 454 522 32,000  Level Cleveland Center
04:59PM 42.8944 -84.4864 262° West 449 517 32,000  Level Chicago Center
05:00PM 42.8769 -84.6553 262° West 452 520 32,000  Level Chicago Center
05:01PM 42.8597 -84.8253 262° West 454 522 32,000  Level Chicago Center
05:02PM 42.8378 -85.0297 262° West 455 524 32,000  Level Chicago Center
05:03PM 42.8189 -85.2008 261° West 457 526 32,000  Level Chicago Center
05:04PM 42.8003 -85.3719 262° West 458 527 32,000 -540 Level Chicago Center
05:05PM 42.7789 -85.5456 261° West 460 529 31,000 -1,800 Descending Chicago Center
05:06PM 42.7469 -85.7217 256° West 475 547 28,300 -2,520 Descending Chicago Center
05:08PM 42.6853 -86.0528 256° West 449 517 23,200 -2,460 Descending Chicago Center
05:09PM 42.6550 -86.2200 256° West 454 522 20,700 -1,560 Descending Chicago Center
05:10PM 42.6203 -86.4036 256° West 416 479 20,000 -360 Descending Chicago Center
05:11PM 42.5919 -86.5536 256° West 411 473 20,000 -300 Level Chicago Center
05:12PM 42.5625 -86.7194 256° West 422 486 19,400 -1,380 Descending Chicago Center
05:13PM 42.5244 -86.8642 250° West 413 475 17,200 -2,100 Descending Chicago Center
05:14PM 42.4897 -86.9897 249° West 389 448 15,100 -2,100 Descending Chicago Center
05:15PM 42.4522 -87.1231 249° West 380 437 12,900 -2,280 Descending Chicago Center
05:16PM 42.4114 -87.2742 250° West 362 417 10,400 -1,440 Descending Chicago Center
05:17PM 42.3811 -87.3842 250° West 320 368 10,000 -660 Descending Chicago Center
05:18PM 42.3522 -87.4881 249° West 291 335 9,100 -900 Descending Chicago Center
05:19PM 42.3119 -87.5606 233° Southwest 257 296 8,200 -960 Descending Chicago Center
05:20PM 42.2667 -87.6106 219° Southwest 215 247 7,200 -600 Descending Chicago Center
05:21PM 42.2231 -87.6378 205° Southwest 174 200 7,000 -120 Descending Chicago Center
05:23PM 42.1167 -87.7000 203° Southwest 174 200 7,000  Level Chicago TRACON
05:24PM 42.1000 -87.7333 236° Southwest 197 227 7,000  Level Chicago TRACON
05:25PM 42.0833 -87.8167 255° West 207 238 7,000  Level Chicago TRACON
05:26PM 42.0833 -87.9000 270° West 207 238 7,000  Level Chicago TRACON
05:28PM 42.0833 -87.9833 270° West 208 239 7,000  Level Chicago TRACON
05:28PM 42.0833 -88.0500 270° West 209 241 7,100  Climbing Chicago TRACON
05:29PM 42.0667 -88.1333 255° West 210 242 7,100 -420 Level Chicago TRACON
05:31PM 42.0639 -88.2183 268° West 210 242 6,200 -960 Descending Chicago Center
05:32PM 42.0606 -88.2922 267° West 204 235 5,000 -600 Descending Chicago Center
05:33PM 42.0650 -88.3683 275° West 204 235 5,000 -120 Level Chicago Center
05:34PM 42.0692 -88.4636 273° West 211 243 4,800 -480 Descending Chicago Center
05:35PM 42.0475 -88.5106 238° Southwest 184 212 4,100 -420 Descending Chicago Center
05:36PM 42.0206 -88.4597 125° Southeast 176 203 4,000 -60 Descending Chicago Center
05:37PM 42.0017 -88.4008 113° Southeast 174 200 4,000  Level Chicago Center
05:38PM 41.9831 -88.3425 113° Southeast 172 198 4,000  Level Chicago Center
05:39PM 41.9831 -88.2650 90° East 174 200 4,000  Level Chicago Center
05:40PM 41.9842 -88.1983 89° East 179 206 4,000 -60 Level Chicago Center
05:41PM 41.9844 -88.1308 90° East 180 207 3,900 -420 Descending Chicago Center
05:42PM 41.9833 -88.1000 93° East 177 204 3,400 -960 Descending Chicago TRACON
05:43PM 41.9833 -88.0167 90° East 148 170 2,400 -840 Descending Chicago TRACON
05:44PM 41.9833 -87.9833 90° East 120 138 1,700 -720 Descending Chicago TRACON
05:45PM 41.9833 -87.9333 90° East 128 147 1,100 -720 Descending Chicago TRACON